createdAt,value
2019-03-29T00:00:17.391Z,1029.85
2019-03-29T00:01:17.373Z,1029.85
2019-03-29T00:02:17.369Z,1029.83
2019-03-29T00:03:17.349Z,1029.83
2019-03-29T00:04:17.392Z,1029.80
2019-03-29T00:05:17.331Z,1029.77
2019-03-29T00:06:17.320Z,1029.74
2019-03-29T00:07:17.310Z,1029.76
2019-03-29T00:08:17.297Z,1029.75
2019-03-29T00:09:17.335Z,1029.74
2019-03-29T00:10:17.271Z,1029.73
2019-03-29T00:11:17.259Z,1029.73
2019-03-29T00:12:17.249Z,1029.75
2019-03-29T00:13:17.242Z,1029.75
2019-03-29T00:14:17.280Z,1029.73
2019-03-29T00:15:17.220Z,1029.74
2019-03-29T00:16:17.208Z,1029.78
2019-03-29T00:17:17.965Z,1029.80
2019-03-29T00:18:17.191Z,1029.76
2019-03-29T00:19:17.545Z,1029.76
2019-03-29T00:20:17.160Z,1029.76
2019-03-29T00:21:17.147Z,1029.73
2019-03-29T00:22:17.140Z,1029.75
2019-03-29T00:23:18.031Z,1029.73
2019-03-29T00:24:17.170Z,1029.70
2019-03-29T00:25:17.116Z,1029.71
2019-03-29T00:26:17.095Z,1029.73
2019-03-29T00:27:17.082Z,1029.74
2019-03-29T00:28:17.071Z,1029.70
2019-03-29T00:29:17.113Z,1029.73
2019-03-29T00:30:17.109Z,1029.70
2019-03-29T00:31:17.045Z,1029.71
2019-03-29T00:32:17.030Z,1029.67
2019-03-29T00:33:17.142Z,1029.68
2019-03-29T00:34:17.009Z,1029.68
2019-03-29T00:35:16.991Z,1029.68
2019-03-29T00:36:18.023Z,1029.67
2019-03-29T00:37:17.929Z,1029.64
2019-03-29T00:38:16.968Z,1029.64
2019-03-29T00:39:16.950Z,1029.64
2019-03-29T00:40:16.941Z,1029.64
2019-03-29T00:41:16.925Z,1029.67
2019-03-29T00:42:17.150Z,1029.63
2019-03-29T00:43:16.908Z,1029.60
2019-03-29T00:44:16.891Z,1029.58
2019-03-29T00:45:16.893Z,1029.62
2019-03-29T00:46:16.925Z,1029.60
2019-03-29T00:47:16.913Z,1029.58
2019-03-29T00:48:16.847Z,1029.58
2019-03-29T00:49:16.839Z,1029.58
2019-03-29T00:50:16.829Z,1029.57
2019-03-29T00:51:16.818Z,1029.59
2019-03-29T00:52:16.942Z,1029.57
2019-03-29T00:53:16.791Z,1029.57
2019-03-29T00:54:16.793Z,1029.52
2019-03-29T00:55:16.775Z,1029.52
2019-03-29T00:56:16.757Z,1029.51
2019-03-29T00:57:16.749Z,1029.49
2019-03-29T00:58:16.769Z,1029.47
2019-03-29T00:59:16.730Z,1029.44
2019-03-29T01:00:16.717Z,1029.46
2019-03-29T01:01:16.710Z,1029.45
2019-03-29T01:02:16.693Z,1029.49
2019-03-29T01:03:16.735Z,1029.44
2019-03-29T01:04:16.671Z,1029.43
2019-03-29T01:05:16.666Z,1029.40
2019-03-29T01:06:16.649Z,1029.41
2019-03-29T01:07:16.642Z,1029.37
2019-03-29T01:08:16.681Z,1029.39
2019-03-29T01:09:16.638Z,1029.38
2019-03-29T01:10:16.713Z,1029.36
2019-03-29T01:11:16.593Z,1029.39
2019-03-29T01:12:16.585Z,1029.40
2019-03-29T01:13:16.571Z,1029.38
2019-03-29T01:14:16.938Z,1029.34
2019-03-29T01:15:16.550Z,1029.36
2019-03-29T01:16:16.541Z,1029.37
2019-03-29T01:17:16.533Z,1029.33
2019-03-29T01:18:16.529Z,1029.37
2019-03-29T01:19:16.508Z,1029.32
2019-03-29T01:20:16.550Z,1029.31
2019-03-29T01:21:16.484Z,1029.29
2019-03-29T01:22:16.479Z,1029.30
2019-03-29T01:23:16.461Z,1029.24
2019-03-29T01:24:16.465Z,1029.28
2019-03-29T01:25:16.447Z,1029.31
2019-03-29T01:26:16.526Z,1029.26
2019-03-29T01:27:16.424Z,1029.28
2019-03-29T01:28:16.415Z,1029.31
2019-03-29T01:29:16.410Z,1029.27
2019-03-29T01:30:16.389Z,1029.25
2019-03-29T01:31:16.378Z,1029.25
2019-03-29T01:32:16.418Z,1029.29
2019-03-29T01:33:16.358Z,1029.27
2019-03-29T01:34:17.106Z,1029.22
2019-03-29T01:35:16.347Z,1029.24
2019-03-29T01:36:16.374Z,1029.23
2019-03-29T01:37:16.307Z,1029.21
2019-03-29T01:38:22.284Z,1029.24
2019-03-29T01:39:17.289Z,1029.22
2019-03-29T01:40:16.328Z,1029.22
2019-03-29T01:41:16.298Z,1029.21
2019-03-29T01:42:16.259Z,1029.21
2019-03-29T01:43:16.246Z,1029.20
2019-03-29T01:44:16.236Z,1029.19
2019-03-29T01:45:16.318Z,1029.19
2019-03-29T01:46:16.215Z,1029.18
2019-03-29T01:47:16.199Z,1029.20
2019-03-29T01:48:16.195Z,1029.22
2019-03-29T01:49:16.268Z,1029.23
2019-03-29T01:50:16.165Z,1029.18
2019-03-29T01:51:16.225Z,1029.24
2019-03-29T01:52:16.143Z,1029.21
2019-03-29T01:53:16.139Z,1029.27
2019-03-29T01:54:16.121Z,1029.21
2019-03-29T01:55:16.112Z,1029.27
2019-03-29T01:56:16.104Z,1029.25
2019-03-29T01:57:16.107Z,1029.24
2019-03-29T01:58:16.082Z,1029.24
2019-03-29T01:59:16.885Z,1029.21
2019-03-29T02:00:16.080Z,1029.18
2019-03-29T02:01:16.052Z,1029.23
2019-03-29T02:02:16.096Z,1029.21
2019-03-29T02:03:16.035Z,1029.20
2019-03-29T02:04:16.048Z,1029.27
2019-03-29T02:05:16.006Z,1029.24
2019-03-29T02:06:15.996Z,1029.24
2019-03-29T02:07:15.985Z,1029.22
2019-03-29T02:08:16.022Z,1029.19
2019-03-29T02:09:15.975Z,1029.15
2019-03-29T02:10:15.962Z,1029.14
2019-03-29T02:11:15.935Z,1029.17
2019-03-29T02:12:15.975Z,1029.19
2019-03-29T02:13:15.914Z,1029.16
2019-03-29T02:14:15.902Z,1029.20
2019-03-29T02:15:15.895Z,1029.17
2019-03-29T02:16:15.884Z,1029.19
2019-03-29T02:17:15.870Z,1029.19
2019-03-29T02:18:15.911Z,1029.20
2019-03-29T02:19:15.852Z,1029.19
2019-03-29T02:20:15.836Z,1029.19
2019-03-29T02:21:16.918Z,1029.15
2019-03-29T02:22:15.815Z,1029.15
2019-03-29T02:23:15.805Z,1029.18
2019-03-29T02:24:15.845Z,1029.12
2019-03-29T02:25:16.117Z,1029.10
2019-03-29T02:26:15.769Z,1029.07
2019-03-29T02:27:15.798Z,1029.09
2019-03-29T02:28:15.801Z,1029.03
2019-03-29T02:29:15.746Z,1029.05
2019-03-29T02:30:15.730Z,1029.03
2019-03-29T02:31:15.715Z,1028.97
2019-03-29T02:32:15.718Z,1029.01
2019-03-29T02:33:15.764Z,1029.00
2019-03-29T02:34:16.012Z,1029.04
2019-03-29T02:35:15.682Z,1029.08
2019-03-29T02:36:15.662Z,1029.07
2019-03-29T02:37:15.648Z,1029.09
2019-03-29T02:38:15.639Z,1029.07
2019-03-29T02:39:15.684Z,1029.06
2019-03-29T02:40:15.670Z,1029.05
2019-03-29T02:41:15.609Z,1029.06
2019-03-29T02:42:15.594Z,1029.11
2019-03-29T02:43:15.582Z,1029.10
2019-03-29T02:44:15.626Z,1029.14
2019-03-29T02:45:15.562Z,1029.12
2019-03-29T02:46:15.549Z,1029.13
2019-03-29T02:47:15.545Z,1029.10
2019-03-29T02:48:16.738Z,1029.10
2019-03-29T02:49:15.517Z,1029.08
2019-03-29T02:50:15.556Z,1029.07
2019-03-29T02:51:15.497Z,1029.11
2019-03-29T02:52:15.481Z,1029.12
2019-03-29T02:53:15.477Z,1029.07
2019-03-29T02:54:15.465Z,1029.12
2019-03-29T02:55:15.449Z,1029.08
2019-03-29T02:56:15.496Z,1029.11
2019-03-29T02:57:15.436Z,1029.06
2019-03-29T02:58:15.417Z,1029.03
2019-03-29T02:59:15.412Z,1029.03
2019-03-29T03:00:15.448Z,1029.03
2019-03-29T03:01:15.394Z,1029.01
2019-03-29T03:02:15.371Z,1029.03
2019-03-29T03:03:15.367Z,1029.00
2019-03-29T03:04:15.355Z,1029.05
2019-03-29T03:05:15.420Z,1029.02
2019-03-29T03:06:15.336Z,1029.02
2019-03-29T03:07:15.323Z,1029.01
2019-03-29T03:08:15.316Z,1029.03
2019-03-29T03:09:15.300Z,1029.01
2019-03-29T03:10:15.302Z,1028.98
2019-03-29T03:11:15.346Z,1029.03
2019-03-29T03:12:15.265Z,1029.05
2019-03-29T03:13:15.255Z,1029.04
2019-03-29T03:14:15.240Z,1029.04
2019-03-29T03:15:15.235Z,1029.02
2019-03-29T03:16:15.215Z,1029.01
2019-03-29T03:17:15.219Z,1029.04
2019-03-29T03:18:15.201Z,1029.01
2019-03-29T03:19:15.182Z,1029.10
2019-03-29T03:20:15.882Z,1029.03
2019-03-29T03:21:15.167Z,1029.09
2019-03-29T03:22:15.203Z,1029.10
2019-03-29T03:23:15.139Z,1029.09
2019-03-29T03:24:15.132Z,1029.05
2019-03-29T03:25:15.124Z,1029.12
2019-03-29T03:26:15.110Z,1029.11
2019-03-29T03:27:15.164Z,1029.06
2019-03-29T03:28:15.088Z,1029.10
2019-03-29T03:29:15.075Z,1029.08
2019-03-29T03:30:15.077Z,1029.09
2019-03-29T03:31:15.049Z,1029.08
2019-03-29T03:32:15.119Z,1029.10
2019-03-29T03:33:15.050Z,1029.13
2019-03-29T03:34:15.022Z,1029.09
2019-03-29T03:35:15.018Z,1029.10
2019-03-29T03:36:14.997Z,1029.18
2019-03-29T03:37:14.986Z,1029.12
2019-03-29T03:38:15.067Z,1029.14
2019-03-29T03:39:30.841Z,1029.16
2019-03-29T03:40:15.950Z,1029.15
2019-03-29T03:41:14.942Z,1029.16
2019-03-29T03:42:14.930Z,1029.12
2019-03-29T03:43:14.915Z,1029.14
2019-03-29T03:44:14.980Z,1029.12
2019-03-29T03:45:14.900Z,1029.14
2019-03-29T03:46:14.883Z,1029.15
2019-03-29T03:47:14.975Z,1029.16
2019-03-29T03:48:14.915Z,1029.18
2019-03-29T03:49:14.905Z,1029.17
2019-03-29T03:50:14.899Z,1029.18
2019-03-29T03:51:14.837Z,1029.13
2019-03-29T03:52:14.828Z,1029.18
2019-03-29T03:53:14.807Z,1029.16
2019-03-29T03:54:14.799Z,1029.17
2019-03-29T03:55:14.840Z,1029.16
2019-03-29T03:56:14.791Z,1029.19
2019-03-29T03:57:14.769Z,1029.19
2019-03-29T03:58:14.775Z,1029.20
2019-03-29T03:59:14.744Z,1029.19
2019-03-29T04:00:14.749Z,1029.22
2019-03-29T04:01:14.793Z,1029.18
2019-03-29T04:02:14.715Z,1029.18
2019-03-29T04:03:14.710Z,1029.26
2019-03-29T04:04:14.681Z,1029.22
2019-03-29T04:05:14.670Z,1029.22
2019-03-29T04:06:14.753Z,1029.17
2019-03-29T04:07:14.653Z,1029.23
2019-03-29T04:08:14.640Z,1029.22
2019-03-29T04:09:14.630Z,1029.23
2019-03-29T04:10:14.629Z,1029.22
2019-03-29T04:11:14.604Z,1029.22
2019-03-29T04:12:14.614Z,1029.25
2019-03-29T04:13:14.591Z,1029.22
2019-03-29T04:14:14.570Z,1029.20
2019-03-29T04:15:14.565Z,1029.18
2019-03-29T04:16:14.546Z,1029.17
2019-03-29T04:17:14.579Z,1029.21
2019-03-29T04:18:16.122Z,1029.17
2019-03-29T04:19:14.515Z,1029.25
2019-03-29T04:20:14.505Z,1029.23
2019-03-29T04:21:14.495Z,1029.22
2019-03-29T04:22:14.505Z,1029.21
2019-03-29T04:23:14.474Z,1029.25
2019-03-29T04:24:14.462Z,1029.20
2019-03-29T04:25:14.462Z,1029.20
2019-03-29T04:26:14.438Z,1029.17
2019-03-29T04:27:14.429Z,1029.21
2019-03-29T04:28:14.468Z,1029.12
2019-03-29T04:29:14.403Z,1029.09
2019-03-29T04:30:14.395Z,1029.11
2019-03-29T04:31:14.384Z,1029.18
2019-03-29T04:32:14.369Z,1029.11
2019-03-29T04:33:14.411Z,1029.09
2019-03-29T04:34:14.353Z,1029.17
2019-03-29T04:35:14.367Z,1029.19
2019-03-29T04:36:14.322Z,1029.11
2019-03-29T04:37:14.406Z,1029.15
2019-03-29T04:38:14.356Z,1029.11
2019-03-29T04:39:14.291Z,1029.13
2019-03-29T04:40:14.283Z,1029.12
2019-03-29T04:41:14.321Z,1029.11
2019-03-29T04:42:14.261Z,1029.12
2019-03-29T04:43:14.272Z,1029.13
2019-03-29T04:44:14.247Z,1029.11
2019-03-29T04:45:14.242Z,1029.13
2019-03-29T04:46:14.213Z,1029.13
2019-03-29T04:47:14.206Z,1029.11
2019-03-29T04:48:14.265Z,1029.14
2019-03-29T04:49:14.185Z,1029.12
2019-03-29T04:50:14.168Z,1029.15
2019-03-29T04:51:14.159Z,1029.13
2019-03-29T04:52:14.150Z,1029.17
2019-03-29T04:53:14.134Z,1029.17
2019-03-29T04:54:14.175Z,1029.18
2019-03-29T04:55:14.116Z,1029.14
2019-03-29T04:56:14.116Z,1029.13
2019-03-29T04:57:14.144Z,1029.10
2019-03-29T04:58:14.083Z,1029.07
2019-03-29T04:59:14.075Z,1029.12
2019-03-29T05:00:14.061Z,1029.13
2019-03-29T05:01:17.245Z,1029.07
2019-03-29T05:02:14.130Z,1029.14
2019-03-29T05:03:14.098Z,1029.10
2019-03-29T05:04:14.016Z,1029.11
2019-03-29T05:05:14.023Z,1029.16
2019-03-29T05:06:14.046Z,1029.17
2019-03-29T05:07:13.982Z,1029.16
2019-03-29T05:08:14.022Z,1029.19
2019-03-29T05:09:13.959Z,1029.19
2019-03-29T05:10:21.002Z,1029.20
2019-03-29T05:11:14.937Z,1029.20
2019-03-29T05:12:13.922Z,1029.17
2019-03-29T05:13:13.972Z,1029.19
2019-03-29T05:14:13.911Z,1029.17
2019-03-29T05:15:13.896Z,1029.12
2019-03-29T05:16:13.931Z,1029.15
2019-03-29T05:17:13.866Z,1029.15
2019-03-29T05:18:13.859Z,1029.18
2019-03-29T05:19:13.849Z,1029.15
2019-03-29T05:20:13.834Z,1029.15
2019-03-29T05:21:13.836Z,1029.16
2019-03-29T05:22:13.854Z,1029.13
2019-03-29T05:23:13.807Z,1029.15
2019-03-29T05:24:13.797Z,1029.10
2019-03-29T05:25:13.782Z,1029.15
2019-03-29T05:26:13.768Z,1029.09
2019-03-29T05:27:13.812Z,1029.10
2019-03-29T05:28:13.750Z,1029.13
2019-03-29T05:29:15.563Z,1029.14
2019-03-29T05:30:13.730Z,1029.10
2019-03-29T05:31:13.720Z,1029.15
2019-03-29T05:32:13.704Z,1029.12
2019-03-29T05:33:14.595Z,1029.13
2019-03-29T05:34:13.688Z,1029.14
2019-03-29T05:35:13.720Z,1029.14
2019-03-29T05:36:13.655Z,1029.15
2019-03-29T05:37:13.644Z,1029.17
2019-03-29T05:38:13.729Z,1029.13
2019-03-29T05:39:13.642Z,1029.17
2019-03-29T05:40:14.608Z,1029.16
2019-03-29T05:41:13.609Z,1029.17
2019-03-29T05:42:13.590Z,1029.16
2019-03-29T05:43:13.578Z,1029.16
2019-03-29T05:44:13.618Z,1029.15
2019-03-29T05:45:13.556Z,1029.15
2019-03-29T05:46:13.550Z,1029.19
2019-03-29T05:47:13.535Z,1029.16
2019-03-29T05:48:13.575Z,1029.19
2019-03-29T05:49:13.563Z,1029.23
2019-03-29T05:50:13.497Z,1029.20
2019-03-29T05:51:13.490Z,1029.22
2019-03-29T05:52:13.477Z,1029.20
2019-03-29T05:53:13.464Z,1029.20
2019-03-29T05:54:13.527Z,1029.23
2019-03-29T05:55:13.447Z,1029.19
2019-03-29T05:56:13.430Z,1029.22
2019-03-29T05:57:13.426Z,1029.15
2019-03-29T05:58:13.415Z,1029.20
2019-03-29T05:59:13.407Z,1029.19
2019-03-29T06:00:13.460Z,1029.19
2019-03-29T06:01:13.376Z,1029.21
2019-03-29T06:02:13.369Z,1029.18
2019-03-29T06:03:13.390Z,1029.14
2019-03-29T06:04:13.346Z,1029.16
2019-03-29T06:05:13.354Z,1029.11
2019-03-29T06:06:13.328Z,1029.11
2019-03-29T06:07:13.307Z,1029.15
2019-03-29T06:08:13.296Z,1029.10
2019-03-29T06:09:13.287Z,1029.15
2019-03-29T06:10:13.351Z,1029.14
2019-03-29T06:11:13.277Z,1029.12
2019-03-29T06:12:13.253Z,1029.11
2019-03-29T06:13:13.240Z,1029.12
2019-03-29T06:14:13.233Z,1029.13
2019-03-29T06:15:13.218Z,1029.11
2019-03-29T06:16:13.246Z,1029.11
2019-03-29T06:17:13.201Z,1029.15
2019-03-29T06:18:13.191Z,1029.16
2019-03-29T06:19:13.178Z,1029.14
2019-03-29T06:20:13.170Z,1029.16
2019-03-29T06:21:13.167Z,1029.14
2019-03-29T06:22:14.108Z,1029.12
2019-03-29T06:23:13.131Z,1029.13
2019-03-29T06:24:13.134Z,1029.11
2019-03-29T06:25:13.113Z,1029.11
2019-03-29T06:26:13.098Z,1029.12
2019-03-29T06:27:13.139Z,1029.10
2019-03-29T06:28:13.075Z,1029.14
2019-03-29T06:29:13.064Z,1029.08
2019-03-29T06:30:13.056Z,1029.09
2019-03-29T06:31:13.045Z,1029.14
2019-03-29T06:32:13.083Z,1029.09
2019-03-29T06:33:13.022Z,1029.10
2019-03-29T06:34:13.010Z,1029.10
2019-03-29T06:35:12.997Z,1029.11
2019-03-29T06:36:12.986Z,1029.12
2019-03-29T06:37:12.981Z,1029.15
2019-03-29T06:38:13.016Z,1029.12
2019-03-29T06:39:12.952Z,1029.10
2019-03-29T06:40:12.945Z,1029.12
2019-03-29T06:41:12.929Z,1029.14
2019-03-29T06:42:12.917Z,1029.10
2019-03-29T06:43:12.907Z,1029.09
2019-03-29T06:44:12.948Z,1029.12
2019-03-29T06:45:12.889Z,1029.09
2019-03-29T06:46:12.882Z,1029.14
2019-03-29T06:47:12.868Z,1029.08
2019-03-29T06:48:12.859Z,1029.08
2019-03-29T06:49:12.844Z,1029.10
2019-03-29T06:50:14.263Z,1029.08
2019-03-29T06:51:12.818Z,1029.08
2019-03-29T06:52:12.809Z,1029.06
2019-03-29T06:53:12.802Z,1029.08
2019-03-29T06:54:12.839Z,1029.05
2019-03-29T06:55:12.780Z,1029.02
2019-03-29T06:56:12.773Z,1029.03
2019-03-29T06:57:12.755Z,1029.02
2019-03-29T06:58:12.739Z,1029.00
2019-03-29T06:59:12.863Z,1029.04
2019-03-29T07:00:12.735Z,1028.98
2019-03-29T07:01:12.708Z,1029.06
2019-03-29T07:02:12.701Z,1028.98
2019-03-29T07:03:12.691Z,1029.05
2019-03-29T07:04:12.729Z,1029.01
2019-03-29T07:05:12.667Z,1029.00
2019-03-29T07:06:12.655Z,1029.04
2019-03-29T07:07:12.696Z,1029.06
2019-03-29T07:08:12.630Z,1029.01
2019-03-29T07:09:12.677Z,1029.05
2019-03-29T07:10:12.608Z,1029.06
2019-03-29T07:11:17.604Z,1029.05
2019-03-29T07:12:13.612Z,1029.06
2019-03-29T07:13:12.580Z,1029.06
2019-03-29T07:14:12.615Z,1029.06
2019-03-29T07:15:12.552Z,1029.04
2019-03-29T07:16:12.546Z,1029.03
2019-03-29T07:17:12.536Z,1029.05
2019-03-29T07:18:12.526Z,1029.07
2019-03-29T07:19:12.576Z,1029.08
2019-03-29T07:20:12.498Z,1029.09
2019-03-29T07:21:21.451Z,1029.14
2019-03-29T07:22:13.477Z,1029.10
2019-03-29T07:23:12.469Z,1029.11
2019-03-29T07:24:12.455Z,1029.15
2019-03-29T07:25:12.481Z,1029.17
2019-03-29T07:26:12.430Z,1029.21
2019-03-29T07:27:12.419Z,1029.19
2019-03-29T07:28:12.414Z,1029.22
2019-03-29T07:29:12.404Z,1029.22
2019-03-29T07:30:12.442Z,1029.20
2019-03-29T07:31:12.382Z,1029.19
2019-03-29T07:32:12.371Z,1029.21
2019-03-29T07:33:12.355Z,1029.18
2019-03-29T07:34:12.342Z,1029.17
2019-03-29T07:35:12.406Z,1029.20
2019-03-29T07:36:12.325Z,1029.22
2019-03-29T07:37:12.310Z,1029.24
2019-03-29T07:38:12.298Z,1029.23
2019-03-29T07:39:12.287Z,1029.20
2019-03-29T07:40:12.278Z,1029.22
2019-03-29T07:41:12.321Z,1029.24
2019-03-29T07:42:12.265Z,1029.24
2019-03-29T07:43:12.243Z,1029.26
2019-03-29T07:44:12.260Z,1029.23
2019-03-29T07:45:12.222Z,1029.21
2019-03-29T07:46:12.216Z,1029.20
2019-03-29T07:47:12.257Z,1029.21
2019-03-29T07:48:12.197Z,1029.21
2019-03-29T07:49:12.180Z,1029.16
2019-03-29T07:50:12.166Z,1029.24
2019-03-29T07:51:12.157Z,1029.16
2019-03-29T07:52:12.221Z,1029.17
2019-03-29T07:53:12.133Z,1029.15
2019-03-29T07:54:12.123Z,1029.12
2019-03-29T07:55:12.115Z,1029.15
2019-03-29T07:56:12.103Z,1029.13
2019-03-29T07:57:12.093Z,1029.12
2019-03-29T07:58:12.149Z,1029.13
2019-03-29T07:59:12.065Z,1029.14
2019-03-29T08:00:12.083Z,1029.10
2019-03-29T08:01:12.042Z,1029.16
2019-03-29T08:02:12.033Z,1029.13
2019-03-29T08:03:12.027Z,1029.12
2019-03-29T08:04:12.056Z,1029.15
2019-03-29T08:05:12.003Z,1029.14
2019-03-29T08:06:12.142Z,1029.14
2019-03-29T08:07:11.979Z,1029.14
2019-03-29T08:08:23.125Z,1029.13
2019-03-29T08:09:22.419Z,1029.15
2019-03-29T08:10:23.998Z,1029.12
2019-03-29T08:11:25.488Z,1029.09
2019-03-29T08:12:12.922Z,1029.13
2019-03-29T08:13:11.913Z,1029.11
2019-03-29T08:14:14.820Z,1029.11
2019-03-29T08:15:11.887Z,1029.03
2019-03-29T08:16:11.928Z,1029.04
2019-03-29T08:17:11.869Z,1029.03
2019-03-29T08:18:11.855Z,1029.00
2019-03-29T08:19:11.911Z,1029.04
2019-03-29T08:20:38.107Z,1028.98
2019-03-29T08:21:12.826Z,1028.99
2019-03-29T08:22:11.808Z,1029.04
2019-03-29T08:23:11.801Z,1029.06
2019-03-29T08:24:11.861Z,1029.04
2019-03-29T08:25:11.805Z,1029.03
2019-03-29T08:26:11.769Z,1029.03
2019-03-29T08:27:11.761Z,1029.01
2019-03-29T08:28:11.746Z,1029.03
2019-03-29T08:29:11.738Z,1029.02
2019-03-29T08:30:11.723Z,1029.04
2019-03-29T08:31:11.761Z,1029.01
2019-03-29T08:32:11.708Z,1029.01
2019-03-29T08:33:11.692Z,1029.02
2019-03-29T08:34:11.680Z,1029.04
2019-03-29T08:35:11.665Z,1029.03
2019-03-29T08:36:11.697Z,1029.05
2019-03-29T08:37:11.642Z,1029.04
2019-03-29T08:38:11.629Z,1029.09
2019-03-29T08:39:11.624Z,1029.04
2019-03-29T08:40:11.612Z,1029.11
2019-03-29T08:41:11.609Z,1029.11
2019-03-29T08:42:11.585Z,1029.11
2019-03-29T08:43:11.583Z,1029.12
2019-03-29T08:44:12.044Z,1029.11
2019-03-29T08:45:11.556Z,1029.06
2019-03-29T08:46:11.595Z,1029.13
2019-03-29T08:47:11.534Z,1029.16
2019-03-29T08:48:11.522Z,1029.14
2019-03-29T08:49:11.515Z,1029.14
2019-03-29T08:50:11.499Z,1029.13
2019-03-29T08:51:11.487Z,1029.12
2019-03-29T08:52:11.548Z,1029.07
2019-03-29T08:53:11.466Z,1029.11
2019-03-29T08:54:11.456Z,1029.10
2019-03-29T08:55:11.444Z,1029.08
2019-03-29T08:56:11.428Z,1029.10
2019-03-29T08:57:11.418Z,1029.08
2019-03-29T08:58:11.426Z,1029.07
2019-03-29T08:59:11.399Z,1029.08
2019-03-29T09:00:11.392Z,1029.06
2019-03-29T09:01:11.374Z,1029.07
2019-03-29T09:02:11.362Z,1029.07
2019-03-29T09:03:11.445Z,1029.08
2019-03-29T09:04:11.346Z,1029.06
2019-03-29T09:05:11.331Z,1029.06
2019-03-29T09:06:11.318Z,1029.05
2019-03-29T09:07:11.309Z,1029.01
2019-03-29T09:08:11.296Z,1029.00
2019-03-29T09:09:12.106Z,1029.06
2019-03-29T09:10:11.277Z,1029.05
2019-03-29T09:11:11.267Z,1029.07
2019-03-29T09:12:14.670Z,1029.00
2019-03-29T09:13:11.240Z,1029.03
2019-03-29T09:14:11.281Z,1028.98
2019-03-29T09:15:11.223Z,1028.95
2019-03-29T09:16:11.209Z,1029.01
2019-03-29T09:17:11.199Z,1028.98
2019-03-29T09:18:11.184Z,1028.97
2019-03-29T09:19:11.172Z,1028.97
2019-03-29T09:20:11.216Z,1028.96
2019-03-29T09:21:11.156Z,1028.96
2019-03-29T09:22:11.143Z,1028.97
2019-03-29T09:23:11.133Z,1028.99
2019-03-29T09:24:21.632Z,1028.96
2019-03-29T09:25:12.162Z,1028.96
2019-03-29T09:26:11.093Z,1028.98
2019-03-29T09:27:11.087Z,1029.00
2019-03-29T09:28:11.132Z,1028.98
2019-03-29T09:29:11.067Z,1029.00
2019-03-29T09:30:11.055Z,1028.98
2019-03-29T09:31:11.091Z,1028.98
2019-03-29T09:32:11.032Z,1029.01
2019-03-29T09:33:11.017Z,1029.05
2019-03-29T09:34:11.007Z,1029.00
2019-03-29T09:35:10.998Z,1029.03
2019-03-29T09:36:11.037Z,1029.00
2019-03-29T09:37:10.976Z,1029.02
2019-03-29T09:38:10.960Z,1029.01
2019-03-29T09:39:10.951Z,1028.99
2019-03-29T09:40:13.707Z,1029.02
2019-03-29T09:41:10.932Z,1028.98
2019-03-29T09:42:10.957Z,1028.99
2019-03-29T09:43:10.963Z,1028.97
2019-03-29T09:44:10.899Z,1029.00
2019-03-29T09:45:10.886Z,1028.98
2019-03-29T09:46:10.873Z,1028.98
2019-03-29T09:47:10.864Z,1028.96
2019-03-29T09:48:10.904Z,1028.96
2019-03-29T09:49:10.842Z,1028.98
2019-03-29T09:50:10.965Z,1028.95
2019-03-29T09:51:10.820Z,1028.91
2019-03-29T09:52:10.804Z,1028.95
2019-03-29T09:53:10.867Z,1028.93
2019-03-29T09:54:10.786Z,1028.90
2019-03-29T09:55:10.777Z,1028.87
2019-03-29T09:56:10.897Z,1028.91
2019-03-29T09:57:15.415Z,1028.89
2019-03-29T09:58:10.741Z,1028.85
2019-03-29T09:59:10.734Z,1028.90
2019-03-29T10:00:19.252Z,1028.88
2019-03-29T10:01:11.802Z,1028.83
2019-03-29T10:02:10.696Z,1028.86
2019-03-29T10:03:10.688Z,1028.85
2019-03-29T10:04:10.670Z,1028.88
2019-03-29T10:05:10.660Z,1028.89
2019-03-29T10:06:10.747Z,1028.84
2019-03-29T10:07:10.643Z,1028.81
2019-03-29T10:08:18.179Z,1028.79
2019-03-29T10:09:10.654Z,1028.83
2019-03-29T10:10:10.658Z,1028.82
2019-03-29T10:11:10.601Z,1028.78
2019-03-29T10:12:10.635Z,1028.78
2019-03-29T10:13:10.577Z,1028.80
2019-03-29T10:14:10.566Z,1028.86
2019-03-29T10:15:10.602Z,1028.85
2019-03-29T10:16:10.553Z,1028.80
2019-03-29T10:17:10.537Z,1028.81
2019-03-29T10:18:10.521Z,1028.77
2019-03-29T10:19:10.518Z,1028.75
2019-03-29T10:20:10.496Z,1028.79
2019-03-29T10:21:10.748Z,1028.75
2019-03-29T10:22:10.745Z,1028.77
2019-03-29T10:23:10.530Z,1028.74
2019-03-29T10:24:10.513Z,1028.76
2019-03-29T10:25:19.192Z,1028.73
2019-03-29T10:26:11.430Z,1028.73
2019-03-29T10:27:10.418Z,1028.73
2019-03-29T10:28:10.413Z,1028.70
2019-03-29T10:29:10.449Z,1028.72
2019-03-29T10:30:10.389Z,1028.72
2019-03-29T10:31:10.383Z,1028.70
2019-03-29T10:32:10.372Z,1028.70
2019-03-29T10:33:10.357Z,1028.72
2019-03-29T10:34:10.397Z,1028.69
2019-03-29T10:35:10.339Z,1028.67
2019-03-29T10:36:10.320Z,1028.64
2019-03-29T10:37:10.381Z,1028.58
2019-03-29T10:38:10.313Z,1028.59
2019-03-29T10:39:10.295Z,1028.56
2019-03-29T10:40:10.299Z,1028.57
2019-03-29T10:41:10.262Z,1028.54
2019-03-29T10:42:10.255Z,1028.53
2019-03-29T10:43:10.295Z,1028.53
2019-03-29T10:44:10.229Z,1028.51
2019-03-29T10:45:10.238Z,1028.47
2019-03-29T10:46:10.212Z,1028.51
2019-03-29T10:47:10.200Z,1028.47
2019-03-29T10:48:10.241Z,1028.44
2019-03-29T10:49:10.231Z,1028.43
2019-03-29T10:50:10.162Z,1028.44
2019-03-29T10:51:10.149Z,1028.35
2019-03-29T10:52:10.141Z,1028.32
2019-03-29T10:53:10.131Z,1028.32
2019-03-29T10:54:10.159Z,1028.33
2019-03-29T10:55:10.109Z,1028.29
2019-03-29T10:56:10.107Z,1028.25
2019-03-29T10:57:10.081Z,1028.28
2019-03-29T10:58:10.210Z,1028.27
2019-03-29T10:59:10.113Z,1028.27
2019-03-29T11:00:10.058Z,1028.27
2019-03-29T11:01:10.037Z,1028.30
2019-03-29T11:02:10.039Z,1028.24
2019-03-29T11:03:10.027Z,1028.26
2019-03-29T11:04:10.059Z,1028.25
2019-03-29T11:05:10.036Z,1028.24
2019-03-29T11:06:09.992Z,1028.28
2019-03-29T11:07:09.980Z,1028.26
2019-03-29T11:08:11.993Z,1028.22
2019-03-29T11:09:09.959Z,1028.23
2019-03-29T11:10:09.942Z,1028.22
2019-03-29T11:11:10.711Z,1028.19
2019-03-29T11:12:10.006Z,1028.20
2019-03-29T11:13:14.184Z,1028.17
2019-03-29T11:14:09.955Z,1028.16
2019-03-29T11:15:09.885Z,1028.13
2019-03-29T11:16:09.874Z,1028.12
2019-03-29T11:17:09.868Z,1028.11
2019-03-29T11:18:09.865Z,1028.09
2019-03-29T11:19:09.844Z,1028.07
2019-03-29T11:20:09.848Z,1028.01
2019-03-29T11:21:09.821Z,1028.08
2019-03-29T11:22:09.864Z,1028.04
2019-03-29T11:23:09.803Z,1027.99
2019-03-29T11:24:09.792Z,1027.98
2019-03-29T11:25:09.783Z,1027.98
2019-03-29T11:26:09.766Z,1027.99
2019-03-29T11:27:09.846Z,1027.99
2019-03-29T11:28:09.760Z,1028.02
2019-03-29T11:29:09.734Z,1028.01
2019-03-29T11:30:10.705Z,1027.99
2019-03-29T11:31:09.710Z,1027.94
2019-03-29T11:32:09.708Z,1027.95
2019-03-29T11:33:09.723Z,1027.93
2019-03-29T11:34:09.684Z,1027.96
2019-03-29T11:35:09.667Z,1027.92
2019-03-29T11:36:09.707Z,1027.98
2019-03-29T11:37:09.640Z,1028.00
2019-03-29T11:38:09.725Z,1027.99
2019-03-29T11:39:09.618Z,1027.97
2019-03-29T11:40:09.634Z,1027.93
2019-03-29T11:41:09.595Z,1027.97
2019-03-29T11:42:09.583Z,1027.97
2019-03-29T11:43:09.573Z,1027.91
2019-03-29T11:44:09.615Z,1027.96
2019-03-29T11:45:09.552Z,1027.90
2019-03-29T11:46:09.545Z,1027.90
2019-03-29T11:47:09.527Z,1027.88
2019-03-29T11:48:09.843Z,1027.85
2019-03-29T11:49:09.532Z,1027.83
2019-03-29T11:50:09.496Z,1027.85
2019-03-29T11:51:19.251Z,1027.85
2019-03-29T11:52:10.468Z,1027.80
2019-03-29T11:53:09.469Z,1027.86
2019-03-29T11:54:09.455Z,1027.85
2019-03-29T11:55:09.489Z,1027.83
2019-03-29T11:56:09.433Z,1027.84
2019-03-29T11:57:09.418Z,1027.82
2019-03-29T11:58:09.404Z,1027.82
2019-03-29T11:59:09.399Z,1027.81
2019-03-29T12:00:09.389Z,1027.80
2019-03-29T12:01:09.423Z,1027.78
2019-03-29T12:02:09.362Z,1027.78
2019-03-29T12:03:09.861Z,1027.79
2019-03-29T12:04:09.338Z,1027.75
2019-03-29T12:05:09.325Z,1027.72